sensor_id;sensor_type;location;lat;lon;timestamp;temperature;humidity
47660;DHT22;33403;43.608;1.458;2023-04-15T00:00:27;10.80;99.90
47660;DHT22;33403;43.608;1.458;2023-04-15T00:02:53;10.80;99.90
47660;DHT22;33403;43.608;1.458;2023-04-15T00:05:20;10.80;99.90
47660;DHT22;33403;43.608;1.458;2023-04-15T00:07:45;10.80;99.90
47660;DHT22;33403;43.608;1.458;2023-04-15T00:10:12;10.80;99.90
47660;DHT22;33403;43.608;1.458;2023-04-15T00:12:39;10.70;99.90
47660;DHT22;33403;43.608;1.458;2023-04-15T00:15:06;10.70;99.90
47660;DHT22;33403;43.608;1.458;2023-04-15T00:17:32;10.70;99.90
47660;DHT22;33403;43.608;1.458;2023-04-15T00:19:58;10.70;99.90
47660;DHT22;33403;43.608;1.458;2023-04-15T00:22:25;10.70;99.90
47660;DHT22;33403;43.608;1.458;2023-04-15T00:24:52;10.60;99.90
47660;DHT22;33403;43.608;1.458;2023-04-15T00:27:18;10.60;99.90
47660;DHT22;33403;43.608;1.458;2023-04-15T00:29:44;10.60;99.90
47660;DHT22;33403;43.608;1.458;2023-04-15T00:32:09;10.60;99.90
47660;DHT22;33403;43.608;1.458;2023-04-15T00:34:35;10.60;99.90
47660;DHT22;33403;43.608;1.458;2023-04-15T00:37:01;10.60;99.90
47660;DHT22;33403;43.608;1.458;2023-04-15T00:39:27;10.60;99.90
47660;DHT22;33403;43.608;1.458;2023-04-15T00:41:53;10.70;99.90
47660;DHT22;33403;43.608;1.458;2023-04-15T00:44:19;10.80;99.90
47660;DHT22;33403;43.608;1.458;2023-04-15T00:46:46;10.80;99.90
47660;DHT22;33403;43.608;1.458;2023-04-15T00:49:13;10.80;99.90
47660;DHT22;33403;43.608;1.458;2023-04-15T00:51:38;10.90;99.90
47660;DHT22;33403;43.608;1.458;2023-04-15T00:54:05;10.90;99.90
47660;DHT22;33403;43.608;1.458;2023-04-15T00:56:36;10.90;99.90
47660;DHT22;33403;43.608;1.458;2023-04-15T00:59:05;10.90;99.90
47660;DHT22;33403;43.608;1.458;2023-04-15T01:01:36;10.90;99.90
47660;DHT22;33403;43.608;1.458;2023-04-15T01:04:03;10.90;99.90
47660;DHT22;33403;43.608;1.458;2023-04-15T01:06:30;10.90;99.90
47660;DHT22;33403;43.608;1.458;2023-04-15T01:08:57;10.90;99.90
47660;DHT22;33403;43.608;1.458;2023-04-15T01:11:23;11.00;99.90
47660;DHT22;33403;43.608;1.458;2023-04-15T01:13:54;10.90;99.90
47660;DHT22;33403;43.608;1.458;2023-04-15T01:16:20;10.90;99.90
47660;DHT22;33403;43.608;1.458;2023-04-15T01:18:46;10.80;99.90
47660;DHT22;33403;43.608;1.458;2023-04-15T01:21:12;10.80;99.90
47660;DHT22;33403;43.608;1.458;2023-04-15T01:23:38;10.70;99.90
47660;DHT22;33403;43.608;1.458;2023-04-15T01:26:06;10.60;99.90
47660;DHT22;33403;43.608;1.458;2023-04-15T01:28:33;10.70;99.90
47660;DHT22;33403;43.608;1.458;2023-04-15T01:31:09;10.70;99.90
47660;DHT22;33403;43.608;1.458;2023-04-15T01:33:35;10.70;99.90
47660;DHT22;33403;43.608;1.458;2023-04-15T01:36:01;10.60;99.90
47660;DHT22;33403;43.608;1.458;2023-04-15T01:38:28;10.60;99.90
47660;DHT22;33403;43.608;1.458;2023-04-15T01:40:54;10.60;99.90
47660;DHT22;33403;43.608;1.458;2023-04-15T01:43:20;10.70;99.90
47660;DHT22;33403;43.608;1.458;2023-04-15T01:45:46;10.70;99.90
47660;DHT22;33403;43.608;1.458;2023-04-15T01:48:12;10.80;99.90
47660;DHT22;33403;43.608;1.458;2023-04-15T01:50:37;10.80;99.90
47660;DHT22;33403;43.608;1.458;2023-04-15T01:53:03;10.80;99.90
47660;DHT22;33403;43.608;1.458;2023-04-15T01:55:29;10.90;99.90
47660;DHT22;33403;43.608;1.458;2023-04-15T01:57:55;10.80;99.90
47660;DHT22;33403;43.608;1.458;2023-04-15T02:00:21;10.80;99.90
47660;DHT22;33403;43.608;1.458;2023-04-15T02:02:47;10.80;99.90
47660;DHT22;33403;43.608;1.458;2023-04-15T02:05:13;10.80;99.90
47660;DHT22;33403;43.608;1.458;2023-04-15T02:07:41;10.80;99.90
47660;DHT22;33403;43.608;1.458;2023-04-15T02:10:08;10.80;99.90
47660;DHT22;33403;43.608;1.458;2023-04-15T02:12:34;10.80;99.90
47660;DHT22;33403;43.608;1.458;2023-04-15T02:15:00;10.80;99.90
47660;DHT22;33403;43.608;1.458;2023-04-15T02:17:26;10.80;99.90
47660;DHT22;33403;43.608;1.458;2023-04-15T02:19:52;10.80;99.90
47660;DHT22;33403;43.608;1.458;2023-04-15T02:22:17;10.70;99.90
47660;DHT22;33403;43.608;1.458;2023-04-15T02:24:43;10.70;99.90
47660;DHT22;33403;43.608;1.458;2023-04-15T02:27:14;10.60;99.90
47660;DHT22;33403;43.608;1.458;2023-04-15T02:29:39;10.60;99.90
47660;DHT22;33403;43.608;1.458;2023-04-15T02:32:05;10.50;99.90
47660;DHT22;33403;43.608;1.458;2023-04-15T02:34:31;10.50;99.90
47660;DHT22;33403;43.608;1.458;2023-04-15T02:36:58;10.50;99.90
47660;DHT22;33403;43.608;1.458;2023-04-15T02:39:23;10.50;99.90
47660;DHT22;33403;43.608;1.458;2023-04-15T02:41:49;10.40;99.90
47660;DHT22;33403;43.608;1.458;2023-04-15T02:44:17;10.40;99.90
47660;DHT22;33403;43.608;1.458;2023-04-15T02:46:45;10.40;99.90
47660;DHT22;33403;43.608;1.458;2023-04-15T02:49:17;10.30;99.90
47660;DHT22;33403;43.608;1.458;2023-04-15T02:51:43;10.30;99.90
47660;DHT22;33403;43.608;1.458;2023-04-15T02:54:12;10.30;99.90
47660;DHT22;33403;43.608;1.458;2023-04-15T02:56:37;10.40;99.90
47660;DHT22;33403;43.608;1.458;2023-04-15T02:59:03;10.50;99.90
47660;DHT22;33403;43.608;1.458;2023-04-15T03:01:29;10.50;99.90
47660;DHT22;33403;43.608;1.458;2023-04-15T03:03:54;10.60;99.90
47660;DHT22;33403;43.608;1.458;2023-04-15T03:06:20;10.60;99.90
47660;DHT22;33403;43.608;1.458;2023-04-15T03:08:46;10.60;99.90
47660;DHT22;33403;43.608;1.458;2023-04-15T03:11:12;10.60;99.90
47660;DHT22;33403;43.608;1.458;2023-04-15T03:13:38;10.60;99.90
47660;DHT22;33403;43.608;1.458;2023-04-15T03:16:06;10.60;99.90
47660;DHT22;33403;43.608;1.458;2023-04-15T03:18:32;10.60;99.90
47660;DHT22;33403;43.608;1.458;2023-04-15T03:20:57;10.60;99.90
47660;DHT22;33403;43.608;1.458;2023-04-15T03:23:23;10.60;99.90
47660;DHT22;33403;43.608;1.458;2023-04-15T03:25:49;10.60;99.90
47660;DHT22;33403;43.608;1.458;2023-04-15T03:28:15;10.60;99.90
47660;DHT22;33403;43.608;1.458;2023-04-15T03:30:41;10.60;99.90
47660;DHT22;33403;43.608;1.458;2023-04-15T03:33:06;10.60;99.90
47660;DHT22;33403;43.608;1.458;2023-04-15T03:35:33;10.60;99.90
47660;DHT22;33403;43.608;1.458;2023-04-15T03:37:59;10.70;99.90
47660;DHT22;33403;43.608;1.458;2023-04-15T03:40:24;10.70;99.90
47660;DHT22;33403;43.608;1.458;2023-04-15T03:42:50;10.70;99.90
47660;DHT22;33403;43.608;1.458;2023-04-15T03:45:16;10.70;99.90
47660;DHT22;33403;43.608;1.458;2023-04-15T03:47:41;10.70;99.90
47660;DHT22;33403;43.608;1.458;2023-04-15T03:50:07;10.70;99.90
47660;DHT22;33403;43.608;1.458;2023-04-15T03:52:33;10.70;99.90
47660;DHT22;33403;43.608;1.458;2023-04-15T03:54:59;10.70;99.90
47660;DHT22;33403;43.608;1.458;2023-04-15T03:57:24;10.70;99.90
47660;DHT22;33403;43.608;1.458;2023-04-15T03:59:50;10.70;99.90
47660;DHT22;33403;43.608;1.458;2023-04-15T04:02:16;10.70;99.90
47660;DHT22;33403;43.608;1.458;2023-04-15T04:04:42;10.80;99.90
47660;DHT22;33403;43.608;1.458;2023-04-15T04:07:08;10.80;99.90
47660;DHT22;33403;43.608;1.458;2023-04-15T04:09:38;10.70;99.90
47660;DHT22;33403;43.608;1.458;2023-04-15T04:12:05;10.70;99.90
47660;DHT22;33403;43.608;1.458;2023-04-15T04:14:31;10.70;99.90
47660;DHT22;33403;43.608;1.458;2023-04-15T04:16:57;10.70;99.90
47660;DHT22;33403;43.608;1.458;2023-04-15T04:19:22;10.80;99.90
47660;DHT22;33403;43.608;1.458;2023-04-15T04:21:48;10.70;99.90
47660;DHT22;33403;43.608;1.458;2023-04-15T04:24:14;10.70;99.90
47660;DHT22;33403;43.608;1.458;2023-04-15T04:26:39;10.70;99.90
47660;DHT22;33403;43.608;1.458;2023-04-15T04:29:05;10.70;99.90
47660;DHT22;33403;43.608;1.458;2023-04-15T04:31:31;10.70;99.90
47660;DHT22;33403;43.608;1.458;2023-04-15T04:33:57;10.60;99.90
47660;DHT22;33403;43.608;1.458;2023-04-15T04:36:22;10.60;99.90
47660;DHT22;33403;43.608;1.458;2023-04-15T04:38:48;10.50;99.90
47660;DHT22;33403;43.608;1.458;2023-04-15T04:41:14;10.60;99.90
47660;DHT22;33403;43.608;1.458;2023-04-15T04:43:39;10.60;99.90
47660;DHT22;33403;43.608;1.458;2023-04-15T04:46:05;10.60;99.90
47660;DHT22;33403;43.608;1.458;2023-04-15T04:48:31;10.60;99.90
47660;DHT22;33403;43.608;1.458;2023-04-15T04:50:56;10.60;99.90
47660;DHT22;33403;43.608;1.458;2023-04-15T04:53:22;10.60;99.90
47660;DHT22;33403;43.608;1.458;2023-04-15T04:55:48;10.60;99.90
47660;DHT22;33403;43.608;1.458;2023-04-15T04:58:13;10.60;99.90
47660;DHT22;33403;43.608;1.458;2023-04-15T05:00:39;10.60;99.90
47660;DHT22;33403;43.608;1.458;2023-04-15T05:03:05;10.60;99.90
47660;DHT22;33403;43.608;1.458;2023-04-15T05:05:31;10.50;99.90
47660;DHT22;33403;43.608;1.458;2023-04-15T05:07:56;10.50;99.90
47660;DHT22;33403;43.608;1.458;2023-04-15T05:10:22;10.60;99.90
47660;DHT22;33403;43.608;1.458;2023-04-15T05:12:48;10.60;99.90
47660;DHT22;33403;43.608;1.458;2023-04-15T05:15:13;10.60;99.90
47660;DHT22;33403;43.608;1.458;2023-04-15T05:17:39;10.60;99.90
47660;DHT22;33403;43.608;1.458;2023-04-15T05:20:05;10.60;99.90
47660;DHT22;33403;43.608;1.458;2023-04-15T05:22:31;10.60;99.90
47660;DHT22;33403;43.608;1.458;2023-04-15T05:24:57;10.60;99.90
47660;DHT22;33403;43.608;1.458;2023-04-15T05:27:23;10.60;99.90
47660;DHT22;33403;43.608;1.458;2023-04-15T05:29:49;10.60;99.90
47660;DHT22;33403;43.608;1.458;2023-04-15T05:32:14;10.50;99.90
47660;DHT22;33403;43.608;1.458;2023-04-15T05:34:40;10.50;99.90
47660;DHT22;33403;43.608;1.458;2023-04-15T05:37:06;10.50;99.90
47660;DHT22;33403;43.608;1.458;2023-04-15T05:39:32;10.60;99.90
47660;DHT22;33403;43.608;1.458;2023-04-15T05:41:58;10.70;99.90
47660;DHT22;33403;43.608;1.458;2023-04-15T05:44:24;10.70;99.90
47660;DHT22;33403;43.608;1.458;2023-04-15T05:46:50;10.70;99.90
47660;DHT22;33403;43.608;1.458;2023-04-15T05:49:16;10.70;99.90
47660;DHT22;33403;43.608;1.458;2023-04-15T05:51:42;10.60;99.90
47660;DHT22;33403;43.608;1.458;2023-04-15T05:54:07;10.60;99.90
47660;DHT22;33403;43.608;1.458;2023-04-15T05:56:33;10.60;99.90
47660;DHT22;33403;43.608;1.458;2023-04-15T05:58:58;10.60;99.90
47660;DHT22;33403;43.608;1.458;2023-04-15T06:01:24;10.60;99.90
47660;DHT22;33403;43.608;1.458;2023-04-15T06:03:50;10.70;99.90
47660;DHT22;33403;43.608;1.458;2023-04-15T06:06:16;10.70;99.90
47660;DHT22;33403;43.608;1.458;2023-04-15T06:08:41;10.70;99.90
47660;DHT22;33403;43.608;1.458;2023-04-15T06:11:07;10.70;99.90
47660;DHT22;33403;43.608;1.458;2023-04-15T06:13:32;10.80;99.90
47660;DHT22;33403;43.608;1.458;2023-04-15T06:15:59;10.70;99.90
47660;DHT22;33403;43.608;1.458;2023-04-15T06:18:24;10.70;99.90
47660;DHT22;33403;43.608;1.458;2023-04-15T06:20:50;10.70;99.90
47660;DHT22;33403;43.608;1.458;2023-04-15T06:23:16;10.70;99.90
47660;DHT22;33403;43.608;1.458;2023-04-15T06:25:41;10.80;99.90
47660;DHT22;33403;43.608;1.458;2023-04-15T06:28:07;10.70;99.90
47660;DHT22;33403;43.608;1.458;2023-04-15T06:30:33;10.80;99.90
47660;DHT22;33403;43.608;1.458;2023-04-15T06:33:00;10.80;99.90
47660;DHT22;33403;43.608;1.458;2023-04-15T06:35:27;10.80;99.90
47660;DHT22;33403;43.608;1.458;2023-04-15T06:37:53;10.80;99.90
47660;DHT22;33403;43.608;1.458;2023-04-15T06:40:18;10.60;99.90
47660;DHT22;33403;43.608;1.458;2023-04-15T06:42:44;10.60;99.90
47660;DHT22;33403;43.608;1.458;2023-04-15T06:45:10;10.60;99.90
47660;DHT22;33403;43.608;1.458;2023-04-15T06:47:36;10.60;99.90
47660;DHT22;33403;43.608;1.458;2023-04-15T06:50:02;10.60;99.90
47660;DHT22;33403;43.608;1.458;2023-04-15T06:52:28;10.60;99.90
47660;DHT22;33403;43.608;1.458;2023-04-15T06:54:54;10.60;99.90
47660;DHT22;33403;43.608;1.458;2023-04-15T06:57:19;10.60;99.90
47660;DHT22;33403;43.608;1.458;2023-04-15T06:59:45;10.60;99.90
47660;DHT22;33403;43.608;1.458;2023-04-15T07:02:12;10.60;99.90
47660;DHT22;33403;43.608;1.458;2023-04-15T07:04:38;10.60;99.90
47660;DHT22;33403;43.608;1.458;2023-04-15T07:07:04;10.60;99.90
47660;DHT22;33403;43.608;1.458;2023-04-15T07:09:30;10.60;99.90
47660;DHT22;33403;43.608;1.458;2023-04-15T07:11:56;10.60;99.90
47660;DHT22;33403;43.608;1.458;2023-04-15T07:14:22;10.60;99.90
47660;DHT22;33403;43.608;1.458;2023-04-15T07:16:48;10.60;99.90
47660;DHT22;33403;43.608;1.458;2023-04-15T07:19:13;10.70;99.90
47660;DHT22;33403;43.608;1.458;2023-04-15T07:21:39;10.70;99.90
47660;DHT22;33403;43.608;1.458;2023-04-15T07:24:05;10.80;99.90
47660;DHT22;33403;43.608;1.458;2023-04-15T07:26:31;10.90;99.90
47660;DHT22;33403;43.608;1.458;2023-04-15T07:28:57;10.90;99.90
47660;DHT22;33403;43.608;1.458;2023-04-15T07:31:22;11.10;99.90
47660;DHT22;33403;43.608;1.458;2023-04-15T07:33:48;11.10;99.90
47660;DHT22;33403;43.608;1.458;2023-04-15T07:36:14;11.20;99.90
47660;DHT22;33403;43.608;1.458;2023-04-15T07:38:39;11.20;99.90
47660;DHT22;33403;43.608;1.458;2023-04-15T07:41:05;11.20;99.90
47660;DHT22;33403;43.608;1.458;2023-04-15T07:43:31;11.20;99.90
47660;DHT22;33403;43.608;1.458;2023-04-15T07:45:57;11.10;99.90
47660;DHT22;33403;43.608;1.458;2023-04-15T07:48:22;11.20;99.90
47660;DHT22;33403;43.608;1.458;2023-04-15T07:50:48;11.30;99.90
47660;DHT22;33403;43.608;1.458;2023-04-15T07:53:13;11.40;99.90
47660;DHT22;33403;43.608;1.458;2023-04-15T07:55:39;11.50;99.90
47660;DHT22;33403;43.608;1.458;2023-04-15T07:58:05;11.50;99.90
47660;DHT22;33403;43.608;1.458;2023-04-15T08:00:31;11.50;99.90
47660;DHT22;33403;43.608;1.458;2023-04-15T08:02:56;11.50;99.90
47660;DHT22;33403;43.608;1.458;2023-04-15T08:05:24;11.60;99.90
47660;DHT22;33403;43.608;1.458;2023-04-15T08:07:50;11.70;99.90
47660;DHT22;33403;43.608;1.458;2023-04-15T08:10:16;11.80;99.90
47660;DHT22;33403;43.608;1.458;2023-04-15T08:12:42;11.80;99.90
47660;DHT22;33403;43.608;1.458;2023-04-15T08:15:08;11.80;99.90
47660;DHT22;33403;43.608;1.458;2023-04-15T08:17:34;11.90;99.90
47660;DHT22;33403;43.608;1.458;2023-04-15T08:19:59;11.90;99.90
47660;DHT22;33403;43.608;1.458;2023-04-15T08:22:25;12.00;99.90
47660;DHT22;33403;43.608;1.458;2023-04-15T08:24:51;12.10;99.90
47660;DHT22;33403;43.608;1.458;2023-04-15T08:27:17;12.10;99.90
47660;DHT22;33403;43.608;1.458;2023-04-15T08:29:43;12.00;99.90
47660;DHT22;33403;43.608;1.458;2023-04-15T08:32:10;12.10;99.90
47660;DHT22;33403;43.608;1.458;2023-04-15T08:34:35;12.20;99.90
47660;DHT22;33403;43.608;1.458;2023-04-15T08:37:01;12.20;99.90
47660;DHT22;33403;43.608;1.458;2023-04-15T08:39:26;12.20;99.90
47660;DHT22;33403;43.608;1.458;2023-04-15T08:42:00;12.20;99.90
47660;DHT22;33403;43.608;1.458;2023-04-15T08:44:29;12.20;99.90
47660;DHT22;33403;43.608;1.458;2023-04-15T08:47:00;12.10;99.90
47660;DHT22;33403;43.608;1.458;2023-04-15T08:49:28;12.00;99.90
47660;DHT22;33403;43.608;1.458;2023-04-15T08:51:54;12.00;99.90
47660;DHT22;33403;43.608;1.458;2023-04-15T08:54:22;12.20;99.90
47660;DHT22;33403;43.608;1.458;2023-04-15T08:56:49;12.20;99.90
47660;DHT22;33403;43.608;1.458;2023-04-15T08:59:15;12.30;99.90
47660;DHT22;33403;43.608;1.458;2023-04-15T09:01:42;12.40;99.90
47660;DHT22;33403;43.608;1.458;2023-04-15T09:04:10;12.40;99.90
47660;DHT22;33403;43.608;1.458;2023-04-15T09:06:38;12.40;99.90
47660;DHT22;33403;43.608;1.458;2023-04-15T09:09:04;12.40;99.90
47660;DHT22;33403;43.608;1.458;2023-04-15T09:11:30;12.30;99.90
47660;DHT22;33403;43.608;1.458;2023-04-15T09:13:56;12.20;99.90
47660;DHT22;33403;43.608;1.458;2023-04-15T09:16:22;12.30;99.90
47660;DHT22;33403;43.608;1.458;2023-04-15T09:18:47;12.40;99.90
47660;DHT22;33403;43.608;1.458;2023-04-15T09:21:15;12.40;99.90
47660;DHT22;33403;43.608;1.458;2023-04-15T09:23:57;12.50;99.90
47660;DHT22;33403;43.608;1.458;2023-04-15T09:26:53;12.60;99.90
47660;DHT22;33403;43.608;1.458;2023-04-15T09:29:19;12.60;99.90
47660;DHT22;33403;43.608;1.458;2023-04-15T09:31:45;12.50;99.90
47660;DHT22;33403;43.608;1.458;2023-04-15T09:34:11;12.80;99.90
47660;DHT22;33403;43.608;1.458;2023-04-15T09:36:56;13.00;99.90
47660;DHT22;33403;43.608;1.458;2023-04-15T09:39:21;12.90;99.90
47660;DHT22;33403;43.608;1.458;2023-04-15T09:42:04;12.60;99.90
47660;DHT22;33403;43.608;1.458;2023-04-15T09:44:31;12.60;99.90
47660;DHT22;33403;43.608;1.458;2023-04-15T09:46:56;12.80;99.90
47660;DHT22;33403;43.608;1.458;2023-04-15T09:49:22;13.10;99.90
47660;DHT22;33403;43.608;1.458;2023-04-15T09:51:48;13.10;99.90
47660;DHT22;33403;43.608;1.458;2023-04-15T09:54:18;13.20;99.90
47660;DHT22;33403;43.608;1.458;2023-04-15T09:56:45;13.10;99.90
47660;DHT22;33403;43.608;1.458;2023-04-15T09:59:11;13.20;99.90
47660;DHT22;33403;43.608;1.458;2023-04-15T10:01:37;13.00;99.90
47660;DHT22;33403;43.608;1.458;2023-04-15T10:04:05;12.90;99.90
47660;DHT22;33403;43.608;1.458;2023-04-15T10:06:31;12.90;99.90
47660;DHT22;33403;43.608;1.458;2023-04-15T10:08:58;13.10;99.90
47660;DHT22;33403;43.608;1.458;2023-04-15T10:11:25;13.30;99.90
47660;DHT22;33403;43.608;1.458;2023-04-15T10:13:53;13.60;99.90
47660;DHT22;33403;43.608;1.458;2023-04-15T10:16:20;13.90;99.90
47660;DHT22;33403;43.608;1.458;2023-04-15T10:18:53;14.00;99.90
47660;DHT22;33403;43.608;1.458;2023-04-15T10:21:20;14.00;99.90
47660;DHT22;33403;43.608;1.458;2023-04-15T10:23:48;13.90;99.90
47660;DHT22;33403;43.608;1.458;2023-04-15T10:26:15;13.80;99.90
47660;DHT22;33403;43.608;1.458;2023-04-15T10:28:45;13.70;99.90
47660;DHT22;33403;43.608;1.458;2023-04-15T10:31:13;13.40;99.90
47660;DHT22;33403;43.608;1.458;2023-04-15T10:33:42;13.30;99.90
47660;DHT22;33403;43.608;1.458;2023-04-15T10:36:09;13.30;99.90
47660;DHT22;33403;43.608;1.458;2023-04-15T10:38:43;13.20;99.90
47660;DHT22;33403;43.608;1.458;2023-04-15T10:41:21;13.30;99.90
47660;DHT22;33403;43.608;1.458;2023-04-15T10:43:55;13.50;99.90
47660;DHT22;33403;43.608;1.458;2023-04-15T10:46:33;13.50;99.90
47660;DHT22;33403;43.608;1.458;2023-04-15T10:49:24;13.60;99.90
47660;DHT22;33403;43.608;1.458;2023-04-15T10:51:57;13.70;99.90
47660;DHT22;33403;43.608;1.458;2023-04-15T10:59:36;14.00;99.90
47660;DHT22;33403;43.608;1.458;2023-04-15T11:02:03;13.90;99.90
47660;DHT22;33403;43.608;1.458;2023-04-15T11:12:56;14.30;99.90
47660;DHT22;33403;43.608;1.458;2023-04-15T11:15:43;14.50;99.90
47660;DHT22;33403;43.608;1.458;2023-04-15T11:18:10;14.60;99.90
47660;DHT22;33403;43.608;1.458;2023-04-15T11:20:37;14.70;99.90
47660;DHT22;33403;43.608;1.458;2023-04-15T11:23:03;14.60;99.90
47660;DHT22;33403;43.608;1.458;2023-04-15T11:25:30;14.70;99.90
47660;DHT22;33403;43.608;1.458;2023-04-15T11:27:58;14.70;99.90
47660;DHT22;33403;43.608;1.458;2023-04-15T11:30:26;14.60;99.90
47660;DHT22;33403;43.608;1.458;2023-04-15T11:32:56;14.40;99.90
47660;DHT22;33403;43.608;1.458;2023-04-15T11:35:22;14.60;99.90
47660;DHT22;33403;43.608;1.458;2023-04-15T11:37:48;14.80;99.90
47660;DHT22;33403;43.608;1.458;2023-04-15T11:40:15;14.80;99.90
47660;DHT22;33403;43.608;1.458;2023-04-15T11:42:43;14.60;99.90
47660;DHT22;33403;43.608;1.458;2023-04-15T11:45:13;14.30;99.90
47660;DHT22;33403;43.608;1.458;2023-04-15T11:47:40;14.20;99.90
47660;DHT22;33403;43.608;1.458;2023-04-15T11:52:50;14.10;99.90
47660;DHT22;33403;43.608;1.458;2023-04-15T11:55:16;14.30;99.90
47660;DHT22;33403;43.608;1.458;2023-04-15T11:57:42;14.30;99.90
47660;DHT22;33403;43.608;1.458;2023-04-15T12:00:08;14.40;99.90
47660;DHT22;33403;43.608;1.458;2023-04-15T12:02:36;14.70;99.90
47660;DHT22;33403;43.608;1.458;2023-04-15T12:05:05;14.80;99.90
47660;DHT22;33403;43.608;1.458;2023-04-15T12:07:31;14.90;99.90
47660;DHT22;33403;43.608;1.458;2023-04-15T12:09:57;15.10;99.90
47660;DHT22;33403;43.608;1.458;2023-04-15T12:12:29;14.90;99.90
47660;DHT22;33403;43.608;1.458;2023-04-15T12:14:58;15.00;99.90
47660;DHT22;33403;43.608;1.458;2023-04-15T12:17:24;15.00;99.90
47660;DHT22;33403;43.608;1.458;2023-04-15T12:19:55;15.10;99.90
47660;DHT22;33403;43.608;1.458;2023-04-15T12:22:21;15.30;99.90
47660;DHT22;33403;43.608;1.458;2023-04-15T12:24:53;15.40;99.90
47660;DHT22;33403;43.608;1.458;2023-04-15T12:27:25;15.20;99.90
47660;DHT22;33403;43.608;1.458;2023-04-15T12:30:03;15.00;99.90
47660;DHT22;33403;43.608;1.458;2023-04-15T12:32:29;14.90;99.90
47660;DHT22;33403;43.608;1.458;2023-04-15T12:34:59;14.90;99.90
47660;DHT22;33403;43.608;1.458;2023-04-15T12:37:24;14.80;99.90
47660;DHT22;33403;43.608;1.458;2023-04-15T12:39:50;14.80;99.90
47660;DHT22;33403;43.608;1.458;2023-04-15T12:42:17;14.70;99.90
47660;DHT22;33403;43.608;1.458;2023-04-15T12:44:42;14.80;99.90
47660;DHT22;33403;43.608;1.458;2023-04-15T12:47:09;15.00;99.90
47660;DHT22;33403;43.608;1.458;2023-04-15T12:49:36;15.20;99.90
47660;DHT22;33403;43.608;1.458;2023-04-15T12:52:03;15.30;99.90
47660;DHT22;33403;43.608;1.458;2023-04-15T12:54:31;15.30;99.90
47660;DHT22;33403;43.608;1.458;2023-04-15T12:56:58;15.40;99.90
47660;DHT22;33403;43.608;1.458;2023-04-15T12:59:24;15.50;99.90
47660;DHT22;33403;43.608;1.458;2023-04-15T13:01:51;15.40;99.90
47660;DHT22;33403;43.608;1.458;2023-04-15T13:04:18;15.40;99.90
47660;DHT22;33403;43.608;1.458;2023-04-15T13:06:45;15.30;99.90
47660;DHT22;33403;43.608;1.458;2023-04-15T13:09:10;15.20;99.90
47660;DHT22;33403;43.608;1.458;2023-04-15T13:11:36;15.20;99.90
47660;DHT22;33403;43.608;1.458;2023-04-15T13:14:07;15.20;99.90
47660;DHT22;33403;43.608;1.458;2023-04-15T13:16:33;15.20;99.90
47660;DHT22;33403;43.608;1.458;2023-04-15T13:18:59;15.20;99.90
47660;DHT22;33403;43.608;1.458;2023-04-15T13:21:26;15.30;99.90
47660;DHT22;33403;43.608;1.458;2023-04-15T13:23:52;15.20;99.90
47660;DHT22;33403;43.608;1.458;2023-04-15T13:26:18;15.20;99.90
47660;DHT22;33403;43.608;1.458;2023-04-15T13:28:44;15.30;99.90
47660;DHT22;33403;43.608;1.458;2023-04-15T13:31:10;15.30;99.90
47660;DHT22;33403;43.608;1.458;2023-04-15T13:33:36;15.20;99.90
47660;DHT22;33403;43.608;1.458;2023-04-15T13:36:02;15.10;99.90
47660;DHT22;33403;43.608;1.458;2023-04-15T13:38:27;15.20;99.90
47660;DHT22;33403;43.608;1.458;2023-04-15T13:40:53;15.50;99.90
47660;DHT22;33403;43.608;1.458;2023-04-15T13:43:19;15.50;98.30
47660;DHT22;33403;43.608;1.458;2023-04-15T13:45:45;15.40;99.70
47660;DHT22;33403;43.608;1.458;2023-04-15T13:48:11;15.60;96.70
47660;DHT22;33403;43.608;1.458;2023-04-15T13:50:37;15.70;99.10
47660;DHT22;33403;43.608;1.458;2023-04-15T13:53:02;15.60;99.80
47660;DHT22;33403;43.608;1.458;2023-04-15T13:55:28;15.50;99.90
47660;DHT22;33403;43.608;1.458;2023-04-15T13:57:55;15.60;99.90
47660;DHT22;33403;43.608;1.458;2023-04-15T14:00:20;15.70;99.20
47660;DHT22;33403;43.608;1.458;2023-04-15T14:02:46;15.80;94.60
47660;DHT22;33403;43.608;1.458;2023-04-15T14:05:12;15.80;97.40
47660;DHT22;33403;43.608;1.458;2023-04-15T14:07:38;15.90;99.90
47660;DHT22;33403;43.608;1.458;2023-04-15T14:10:04;15.90;99.90
47660;DHT22;33403;43.608;1.458;2023-04-15T14:12:30;15.90;97.50
47660;DHT22;33403;43.608;1.458;2023-04-15T14:14:55;15.80;99.00
47660;DHT22;33403;43.608;1.458;2023-04-15T14:17:21;15.80;98.00
47660;DHT22;33403;43.608;1.458;2023-04-15T14:19:46;15.70;99.40
47660;DHT22;33403;43.608;1.458;2023-04-15T14:22:12;15.70;96.90
47660;DHT22;33403;43.608;1.458;2023-04-15T14:24:38;15.90;96.20
47660;DHT22;33403;43.608;1.458;2023-04-15T14:27:03;15.80;95.00
47660;DHT22;33403;43.608;1.458;2023-04-15T14:29:29;15.60;98.30
47660;DHT22;33403;43.608;1.458;2023-04-15T14:31:55;15.40;97.60
47660;DHT22;33403;43.608;1.458;2023-04-15T14:34:23;15.20;97.50
47660;DHT22;33403;43.608;1.458;2023-04-15T14:36:50;14.90;98.90
47660;DHT22;33403;43.608;1.458;2023-04-15T14:39:18;15.00;99.90
47660;DHT22;33403;43.608;1.458;2023-04-15T14:41:44;14.90;97.80
47660;DHT22;33403;43.608;1.458;2023-04-15T14:44:09;14.80;97.30
47660;DHT22;33403;43.608;1.458;2023-04-15T14:46:36;14.70;98.10
47660;DHT22;33403;43.608;1.458;2023-04-15T14:49:02;14.60;99.20
47660;DHT22;33403;43.608;1.458;2023-04-15T14:51:28;14.70;98.50
47660;DHT22;33403;43.608;1.458;2023-04-15T14:53:53;14.80;95.80
47660;DHT22;33403;43.608;1.458;2023-04-15T14:56:19;15.00;95.20
47660;DHT22;33403;43.608;1.458;2023-04-15T14:58:45;15.00;96.20
47660;DHT22;33403;43.608;1.458;2023-04-15T15:01:10;14.90;94.40
47660;DHT22;33403;43.608;1.458;2023-04-15T15:03:36;14.90;97.50
47660;DHT22;33403;43.608;1.458;2023-04-15T15:06:03;15.00;96.20
47660;DHT22;33403;43.608;1.458;2023-04-15T15:08:28;15.20;95.90
47660;DHT22;33403;43.608;1.458;2023-04-15T15:10:54;15.10;95.40
47660;DHT22;33403;43.608;1.458;2023-04-15T15:13:20;15.00;96.60
47660;DHT22;33403;43.608;1.458;2023-04-15T15:15:45;14.90;98.80
47660;DHT22;33403;43.608;1.458;2023-04-15T15:18:14;14.80;98.60
47660;DHT22;33403;43.608;1.458;2023-04-15T15:20:40;14.70;99.80
47660;DHT22;33403;43.608;1.458;2023-04-15T15:23:06;14.70;98.00
47660;DHT22;33403;43.608;1.458;2023-04-15T15:25:31;14.70;97.80
47660;DHT22;33403;43.608;1.458;2023-04-15T15:27:57;15.00;99.00
47660;DHT22;33403;43.608;1.458;2023-04-15T15:30:23;15.20;97.60
47660;DHT22;33403;43.608;1.458;2023-04-15T15:32:48;15.20;97.00
47660;DHT22;33403;43.608;1.458;2023-04-15T15:35:14;15.20;95.10
47660;DHT22;33403;43.608;1.458;2023-04-15T15:37:41;15.00;95.50
47660;DHT22;33403;43.608;1.458;2023-04-15T15:40:07;14.90;98.10
47660;DHT22;33403;43.608;1.458;2023-04-15T15:42:33;15.00;98.90